createdAt,value
2023-05-23T00:01:12.422Z,15.60
2023-05-23T00:03:39.464Z,15.60
2023-05-23T00:06:07.444Z,15.60
2023-05-23T00:08:34.514Z,15.40
2023-05-23T00:11:01.517Z,15.30
2023-05-23T00:13:28.476Z,15.20
2023-05-23T00:15:55.475Z,15.30
2023-05-23T00:18:24.855Z,15.30
2023-05-23T00:20:52.042Z,15.40
2023-05-23T00:23:20.845Z,15.30
2023-05-23T00:25:54.995Z,15.30
2023-05-23T00:28:22.944Z,15.40
2023-05-23T00:30:50.065Z,15.40
2023-05-23T00:33:22.250Z,15.20
2023-05-23T00:35:55.899Z,15.20
2023-05-23T00:38:22.896Z,15.10
2023-05-23T00:40:49.801Z,15.20
2023-05-23T00:43:16.974Z,15.20
2023-05-23T00:45:49.890Z,15.20
2023-05-23T00:48:17.162Z,15.20
2023-05-23T00:50:44.664Z,15.10
2023-05-23T00:53:14.728Z,15.20
2023-05-23T00:55:41.943Z,15.30
2023-05-23T00:58:09.672Z,15.30
2023-05-23T01:00:39.020Z,15.30
2023-05-23T01:03:07.863Z,15.30
2023-05-23T01:05:35.130Z,15.30
2023-05-23T01:08:03.404Z,15.30
2023-05-23T01:10:32.191Z,15.20
2023-05-23T01:13:14.143Z,15.30
2023-05-23T01:16:03.412Z,15.30
2023-05-23T01:18:41.898Z,15.30
2023-05-23T01:21:20.767Z,15.20
2023-05-23T01:24:27.796Z,15.20
2023-05-23T01:27:15.927Z,15.20
2023-05-23T01:29:49.950Z,15.20
2023-05-23T01:32:18.359Z,15.20
2023-05-23T01:34:47.113Z,15.20
2023-05-23T01:37:19.677Z,15.20
2023-05-23T01:39:54.584Z,15.10
2023-05-23T01:42:21.850Z,15.20
2023-05-23T01:44:49.017Z,15.20
2023-05-23T01:47:16.740Z,15.20
2023-05-23T01:49:45.256Z,15.20
2023-05-23T01:52:13.438Z,15.20
2023-05-23T01:54:42.679Z,15.20
2023-05-23T01:57:10.991Z,15.20
2023-05-23T01:59:39.091Z,15.30
2023-05-23T02:02:06.472Z,15.30
2023-05-23T02:04:34.158Z,15.30
2023-05-23T02:07:01.413Z,15.30
2023-05-23T02:09:28.387Z,15.40
2023-05-23T02:11:55.501Z,15.40
2023-05-23T02:14:24.906Z,15.50
2023-05-23T02:16:52.882Z,15.50
2023-05-23T02:19:20.250Z,15.50
2023-05-23T02:21:47.397Z,15.50
2023-05-23T02:24:14.444Z,15.50
2023-05-23T02:26:41.904Z,15.40
2023-05-23T02:29:09.371Z,15.40
2023-05-23T02:31:37.049Z,15.50
2023-05-23T02:34:06.584Z,15.50
2023-05-23T02:36:40.469Z,15.50
2023-05-23T02:39:07.533Z,15.50
2023-05-23T02:41:34.554Z,15.60
2023-05-23T02:44:01.568Z,15.50
2023-05-23T02:46:28.641Z,15.50
2023-05-23T02:48:56.146Z,15.50
2023-05-23T02:51:23.428Z,15.50
2023-05-23T02:53:50.805Z,15.40
2023-05-23T02:56:20.308Z,15.40
2023-05-23T02:58:47.328Z,15.40
2023-05-23T03:01:14.739Z,15.40
2023-05-23T03:03:42.111Z,15.40
2023-05-23T03:06:10.792Z,15.40
2023-05-23T03:08:37.705Z,15.40
2023-05-23T03:11:04.892Z,15.30
2023-05-23T03:13:31.904Z,15.30
2023-05-23T03:15:59.377Z,15.30
2023-05-23T03:18:26.371Z,15.20
2023-05-23T03:20:53.539Z,15.20
2023-05-23T03:23:20.549Z,15.10
2023-05-23T03:25:47.533Z,15.10
2023-05-23T03:28:14.771Z,15.00
2023-05-23T03:30:41.820Z,15.00
2023-05-23T03:33:09.485Z,15.00
2023-05-23T03:35:36.430Z,15.00
2023-05-23T03:38:03.840Z,15.00
2023-05-23T03:40:30.799Z,14.90
2023-05-23T03:43:06.642Z,14.90
2023-05-23T03:45:34.225Z,15.00
2023-05-23T03:48:01.549Z,14.90
2023-05-23T03:50:28.611Z,14.90
2023-05-23T03:52:55.691Z,14.90
2023-05-23T03:55:24.400Z,14.90
2023-05-23T03:57:52.703Z,14.90
2023-05-23T04:00:20.125Z,14.90
2023-05-23T04:02:47.452Z,14.90
2023-05-23T04:05:15.808Z,14.80
2023-05-23T04:07:43.641Z,14.90
2023-05-23T04:10:12.307Z,14.80
2023-05-23T04:12:41.619Z,14.80
2023-05-23T04:15:10.840Z,14.80
2023-05-23T04:17:39.064Z,14.80
2023-05-23T04:20:11.425Z,14.80
2023-05-23T04:22:40.791Z,14.70
2023-05-23T04:25:09.540Z,14.70
2023-05-23T04:27:40.680Z,14.60
2023-05-23T04:30:10.093Z,14.70
2023-05-23T04:32:38.285Z,14.70
2023-05-23T04:35:06.153Z,14.70
2023-05-23T04:37:34.082Z,14.70
2023-05-23T04:40:01.252Z,14.70
2023-05-23T04:42:29.357Z,14.70
2023-05-23T04:44:58.512Z,14.70
2023-05-23T04:47:28.144Z,14.60
2023-05-23T04:49:58.097Z,14.50
2023-05-23T04:52:25.600Z,14.50
2023-05-23T04:54:54.128Z,14.50
2023-05-23T04:57:24.875Z,14.40
2023-05-23T04:59:51.887Z,14.40
2023-05-23T05:02:24.354Z,14.40
2023-05-23T05:04:51.786Z,14.40
2023-05-23T05:07:22.847Z,14.30
2023-05-23T05:09:49.860Z,14.40
2023-05-23T05:12:17.030Z,14.40
2023-05-23T05:14:44.973Z,14.40
2023-05-23T05:17:13.009Z,14.40
2023-05-23T05:19:42.014Z,14.30
2023-05-23T05:22:09.123Z,14.40
2023-05-23T05:24:36.432Z,14.30
2023-05-23T05:27:04.022Z,14.40
2023-05-23T05:29:31.407Z,14.30
2023-05-23T05:31:59.007Z,14.30
2023-05-23T05:34:26.891Z,14.20
2023-05-23T05:36:56.090Z,14.20
2023-05-23T05:39:26.431Z,14.30
2023-05-23T05:41:53.929Z,14.30
2023-05-23T05:44:21.646Z,14.30
2023-05-23T05:46:48.972Z,14.40
2023-05-23T05:49:16.049Z,14.40
2023-05-23T05:51:43.048Z,14.40
2023-05-23T05:54:10.711Z,14.40
2023-05-23T05:56:38.066Z,14.50
2023-05-23T05:59:05.047Z,14.50
2023-05-23T06:01:31.990Z,14.50
2023-05-23T06:03:59.631Z,14.40
2023-05-23T06:06:29.928Z,14.40
2023-05-23T06:08:58.035Z,14.50
2023-05-23T06:11:25.198Z,14.40
2023-05-23T06:13:52.157Z,14.30
2023-05-23T06:16:19.443Z,14.40
2023-05-23T06:18:46.504Z,14.50
2023-05-23T06:21:16.756Z,14.60
2023-05-23T06:23:43.833Z,14.80
2023-05-23T06:26:11.284Z,15.00
2023-05-23T06:28:43.040Z,15.00
2023-05-23T06:31:10.377Z,14.90
2023-05-23T06:33:37.529Z,14.90
2023-05-23T06:36:04.952Z,14.90
2023-05-23T06:38:35.721Z,14.80
2023-05-23T06:41:04.088Z,14.80
2023-05-23T06:43:31.047Z,14.70
2023-05-23T06:46:00.316Z,14.80
2023-05-23T06:48:27.333Z,14.70
2023-05-23T06:50:54.331Z,14.70
2023-05-23T06:53:21.367Z,14.70
2023-05-23T06:55:48.349Z,14.60
2023-05-23T06:58:15.812Z,14.70
2023-05-23T07:00:46.112Z,14.70
2023-05-23T07:03:13.171Z,14.50
2023-05-23T07:05:41.399Z,14.50
2023-05-23T07:08:10.999Z,14.40
2023-05-23T07:10:39.986Z,14.30
2023-05-23T07:13:11.599Z,14.40
2023-05-23T07:15:38.557Z,14.40
2023-05-23T07:18:06.001Z,14.40
2023-05-23T07:20:35.910Z,14.40
2023-05-23T07:23:02.865Z,14.40
2023-05-23T07:25:30.824Z,14.40
2023-05-23T07:27:59.594Z,14.50
2023-05-23T07:30:26.750Z,14.60
2023-05-23T07:32:57.048Z,14.60
2023-05-23T07:35:26.388Z,14.70
2023-05-23T07:37:54.168Z,14.70
2023-05-23T07:40:22.880Z,14.80
2023-05-23T07:42:49.993Z,14.90
2023-05-23T07:45:18.525Z,15.10
2023-05-23T07:47:50.891Z,15.30
2023-05-23T07:50:19.033Z,15.40
2023-05-23T07:52:47.792Z,15.40
2023-05-23T07:55:15.300Z,15.50
2023-05-23T07:57:43.913Z,15.40
2023-05-23T08:00:12.517Z,15.30
2023-05-23T08:02:40.117Z,15.30
2023-05-23T08:05:13.010Z,15.30
2023-05-23T08:07:40.273Z,15.50
2023-05-23T08:10:09.855Z,15.50
2023-05-23T08:12:37.370Z,15.90
2023-05-23T08:15:07.431Z,16.30
2023-05-23T08:17:34.885Z,16.60
2023-05-23T08:20:04.135Z,16.60
2023-05-23T08:22:32.663Z,16.80
2023-05-23T08:25:03.329Z,17.10
2023-05-23T08:27:31.905Z,17.40
2023-05-23T08:30:00.012Z,17.60
2023-05-23T08:32:28.382Z,17.70
2023-05-23T08:34:56.467Z,17.70
2023-05-23T08:37:24.871Z,18.10
2023-05-23T08:39:53.360Z,18.40
2023-05-23T08:42:23.416Z,18.60
2023-05-23T08:44:51.621Z,18.90
2023-05-23T08:47:20.452Z,18.90
2023-05-23T08:49:47.974Z,18.90
2023-05-23T08:52:22.259Z,18.90
2023-05-23T08:54:49.837Z,19.00
2023-05-23T08:57:17.564Z,19.20
2023-05-23T08:59:46.706Z,19.30
2023-05-23T09:02:15.273Z,19.50
2023-05-23T09:04:43.505Z,19.60
2023-05-23T09:07:12.922Z,19.50
2023-05-23T09:09:40.267Z,19.60
2023-05-23T09:12:07.656Z,19.60
2023-05-23T09:14:35.619Z,19.50
2023-05-23T09:17:04.499Z,19.50
2023-05-23T09:19:33.655Z,19.70
2023-05-23T09:22:03.039Z,19.70
2023-05-23T09:24:39.131Z,19.70
2023-05-23T09:27:07.927Z,19.90
2023-05-23T09:29:41.802Z,20.20
2023-05-23T09:32:20.997Z,20.30
2023-05-23T09:35:05.636Z,20.20
2023-05-23T09:37:56.119Z,20.00
2023-05-23T09:40:25.105Z,19.90
2023-05-23T09:42:52.724Z,19.80
2023-05-23T09:45:19.996Z,19.60
2023-05-23T09:47:54.046Z,19.60
2023-05-23T09:50:22.825Z,19.80
2023-05-23T09:52:51.310Z,19.90
2023-05-23T09:55:19.411Z,20.00
2023-05-23T09:57:56.775Z,20.00
2023-05-23T10:00:25.386Z,20.20
2023-05-23T10:03:25.250Z,20.50
2023-05-23T10:06:03.690Z,20.60
2023-05-23T10:08:38.849Z,20.70
2023-05-23T10:11:14.939Z,20.80
2023-05-23T10:13:50.881Z,20.80
2023-05-23T10:16:26.608Z,20.90
2023-05-23T10:19:03.295Z,21.20
2023-05-23T10:21:39.148Z,21.30
2023-05-23T10:24:11.199Z,21.40
2023-05-23T10:26:38.719Z,21.50
2023-05-23T10:29:07.659Z,21.50
2023-05-23T10:31:35.507Z,21.60
2023-05-23T10:34:43.861Z,21.60
2023-05-23T10:37:25.049Z,21.60
2023-05-23T10:40:10.826Z,21.60
2023-05-23T10:43:11.145Z,21.30
2023-05-23T10:45:43.648Z,21.00
2023-05-23T10:48:31.453Z,20.90
2023-05-23T10:51:17.493Z,20.50
2023-05-23T10:53:47.046Z,20.50
2023-05-23T10:56:23.516Z,20.60
2023-05-23T10:58:55.516Z,20.60
2023-05-23T11:01:23.885Z,20.60
2023-05-23T11:03:55.938Z,20.40
2023-05-23T11:06:43.526Z,20.10
2023-05-23T11:09:21.491Z,20.10
2023-05-23T11:11:54.722Z,19.80
2023-05-23T11:14:55.392Z,19.50
2023-05-23T11:17:34.364Z,19.20
2023-05-23T11:20:07.266Z,19.10
2023-05-23T11:22:36.612Z,19.10
2023-05-23T11:25:12.300Z,19.10
2023-05-23T11:27:42.057Z,19.20
2023-05-23T11:30:16.693Z,19.10
2023-05-23T11:32:52.963Z,19.30
2023-05-23T11:35:21.973Z,19.40
2023-05-23T11:37:53.269Z,19.50
2023-05-23T11:40:35.269Z,19.70
2023-05-23T11:43:06.214Z,19.80
2023-05-23T11:45:40.209Z,20.10
2023-05-23T11:48:14.413Z,20.30
2023-05-23T11:50:53.653Z,20.40
2023-05-23T11:53:25.307Z,20.50
2023-05-23T11:56:02.490Z,20.40
2023-05-23T11:58:34.056Z,20.40
2023-05-23T12:01:07.337Z,20.30
2023-05-23T12:03:52.474Z,20.30
2023-05-23T12:06:26.173Z,20.10
2023-05-23T12:08:53.844Z,20.10
2023-05-23T12:11:23.902Z,20.10
2023-05-23T12:13:57.574Z,20.00
2023-05-23T12:16:24.855Z,19.90
2023-05-23T12:18:55.163Z,20.00
2023-05-23T12:21:27.206Z,19.80
2023-05-23T12:23:56.340Z,19.60
2023-05-23T12:26:26.971Z,19.80
2023-05-23T12:28:55.152Z,19.60
2023-05-23T12:31:23.972Z,19.40
2023-05-23T12:33:54.401Z,19.50
2023-05-23T12:36:27.966Z,19.70
2023-05-23T12:39:03.826Z,19.80
2023-05-23T12:41:38.828Z,20.00
2023-05-23T12:44:09.189Z,20.10
2023-05-23T12:46:45.674Z,20.00
2023-05-23T12:49:13.899Z,20.00
2023-05-23T12:51:41.861Z,19.80
2023-05-23T12:54:09.817Z,19.70
2023-05-23T12:56:38.162Z,19.70
2023-05-23T12:59:05.798Z,19.90
2023-05-23T13:01:35.420Z,20.20
2023-05-23T13:04:05.117Z,20.30
2023-05-23T13:06:33.665Z,20.40
2023-05-23T13:09:01.221Z,20.40
2023-05-23T13:11:31.711Z,20.30
2023-05-23T13:14:01.199Z,20.40
2023-05-23T13:16:31.367Z,20.40
2023-05-23T13:18:58.741Z,20.50
2023-05-23T13:21:25.977Z,20.60
2023-05-23T13:23:55.312Z,20.50
2023-05-23T13:26:23.272Z,20.60
2023-05-23T13:28:51.125Z,20.70
2023-05-23T13:31:18.401Z,20.70
2023-05-23T13:33:52.839Z,20.60
2023-05-23T13:36:20.124Z,20.60
2023-05-23T13:38:47.549Z,20.40
2023-05-23T13:41:17.785Z,20.50
2023-05-23T13:43:45.475Z,20.50
2023-05-23T13:46:14.298Z,20.80
2023-05-23T13:48:41.685Z,20.80
2023-05-23T13:51:08.945Z,20.80
2023-05-23T13:53:36.308Z,20.60
2023-05-23T13:56:03.763Z,20.30
2023-05-23T13:58:32.972Z,20.00
2023-05-23T14:01:00.251Z,19.90
2023-05-23T14:03:27.778Z,19.80
2023-05-23T14:05:55.094Z,19.80
2023-05-23T14:08:22.472Z,19.90
2023-05-23T14:10:52.171Z,19.80
2023-05-23T14:13:20.779Z,19.80
2023-05-23T14:15:49.857Z,19.80
2023-05-23T14:18:17.251Z,20.00
2023-05-23T14:20:52.446Z,20.10
2023-05-23T14:23:30.858Z,20.00
2023-05-23T14:25:58.844Z,20.00
2023-05-23T14:28:29.166Z,20.00
2023-05-23T14:30:57.591Z,19.90
2023-05-23T14:33:27.688Z,19.70
2023-05-23T14:35:54.861Z,19.60
2023-05-23T14:38:22.207Z,19.30
2023-05-23T14:40:50.544Z,19.30
2023-05-23T14:43:23.842Z,19.30
2023-05-23T14:45:52.653Z,19.50
2023-05-23T14:48:19.985Z,19.60
2023-05-23T14:50:50.735Z,19.80
2023-05-23T14:53:21.943Z,19.70
2023-05-23T14:55:50.758Z,19.70
2023-05-23T14:58:19.892Z,19.90
2023-05-23T15:00:48.748Z,20.00
2023-05-23T15:03:20.518Z,20.00
2023-05-23T15:05:49.987Z,20.10
2023-05-23T15:08:19.357Z,19.80
2023-05-23T15:10:47.306Z,19.90
2023-05-23T15:13:16.372Z,19.80
2023-05-23T15:15:46.190Z,20.00
2023-05-23T15:18:21.333Z,20.20
2023-05-23T15:20:55.638Z,20.20
2023-05-23T15:23:22.971Z,20.00
2023-05-23T15:25:50.444Z,20.00
2023-05-23T15:28:17.880Z,20.10
2023-05-23T15:30:51.095Z,20.00
2023-05-23T15:33:18.718Z,19.90
2023-05-23T15:35:46.650Z,20.00
2023-05-23T15:38:18.499Z,20.00
2023-05-23T15:40:48.943Z,20.00
2023-05-23T15:43:16.706Z,20.00
2023-05-23T15:45:43.924Z,20.10
2023-05-23T15:48:11.804Z,20.10
2023-05-23T15:50:41.469Z,20.10
2023-05-23T15:53:09.021Z,20.10
2023-05-23T15:55:45.280Z,20.00
2023-05-23T15:58:12.540Z,19.90
2023-05-23T16:00:46.477Z,20.00
2023-05-23T16:06:02.217Z,19.80
2023-05-23T16:08:31.006Z,19.60
2023-05-23T16:10:58.251Z,19.50
2023-05-23T16:13:25.783Z,19.50
2023-05-23T16:15:53.098Z,19.60
2023-05-23T16:18:22.031Z,19.60
2023-05-23T16:20:50.617Z,19.40
2023-05-23T16:23:17.931Z,19.20
2023-05-23T16:25:46.499Z,19.20
2023-05-23T16:28:13.973Z,19.20
2023-05-23T16:30:42.345Z,19.30
2023-05-23T16:33:09.876Z,19.20
2023-05-23T16:35:37.129Z,19.20
2023-05-23T16:38:08.523Z,18.90
2023-05-23T16:40:35.818Z,18.60
2023-05-23T16:43:07.567Z,18.70
2023-05-23T16:45:35.163Z,18.70
2023-05-23T16:48:03.374Z,18.70
2023-05-23T16:50:31.969Z,18.60
2023-05-23T16:53:05.549Z,18.50
2023-05-23T16:55:32.602Z,18.40
2023-05-23T16:57:59.766Z,18.40
2023-05-23T17:00:30.216Z,18.40
2023-05-23T17:02:57.593Z,18.30
2023-05-23T17:05:25.871Z,18.40
2023-05-23T17:07:53.195Z,18.40
2023-05-23T17:10:20.609Z,18.30
2023-05-23T17:12:47.836Z,18.10
2023-05-23T17:15:16.584Z,17.90
2023-05-23T17:17:45.061Z,17.80
2023-05-23T17:20:12.687Z,17.70
2023-05-23T17:22:40.912Z,17.60
2023-05-23T17:25:10.658Z,17.60
2023-05-23T17:27:37.814Z,17.60
2023-05-23T17:30:07.688Z,17.50
2023-05-23T17:32:35.204Z,17.60
2023-05-23T17:35:03.493Z,17.50
2023-05-23T17:37:31.645Z,17.40
2023-05-23T17:40:00.075Z,17.20
2023-05-23T17:42:27.509Z,17.20
2023-05-23T17:44:54.459Z,17.20
2023-05-23T17:47:22.965Z,17.10
2023-05-23T17:49:50.085Z,17.00
2023-05-23T17:52:17.304Z,16.90
2023-05-23T17:54:45.690Z,16.90
2023-05-23T17:57:12.914Z,16.90
2023-05-23T17:59:40.176Z,16.80
2023-05-23T18:02:10.997Z,16.90
2023-05-23T18:04:39.720Z,16.90
2023-05-23T18:07:07.323Z,16.70
2023-05-23T18:09:35.349Z,16.70
2023-05-23T18:12:05.230Z,16.40
2023-05-23T18:14:33.007Z,16.30
2023-05-23T18:17:00.072Z,16.20
2023-05-23T18:19:28.488Z,16.00
2023-05-23T18:21:58.009Z,16.00
2023-05-23T18:24:25.371Z,16.00
2023-05-23T18:26:52.396Z,16.00
2023-05-23T18:29:34.863Z,15.90
2023-05-23T18:32:02.163Z,15.90
2023-05-23T18:34:32.326Z,15.80
2023-05-23T18:36:59.608Z,15.70
2023-05-23T18:39:27.745Z,15.60
2023-05-23T18:41:55.365Z,15.40
2023-05-23T18:44:23.664Z,15.30
2023-05-23T18:46:52.485Z,15.30
2023-05-23T18:49:22.162Z,15.20
2023-05-23T18:51:51.947Z,15.10
2023-05-23T18:54:22.863Z,15.10
2023-05-23T18:56:50.501Z,15.00
2023-05-23T18:59:19.712Z,15.00
2023-05-23T19:01:51.168Z,15.00
2023-05-23T19:04:21.518Z,14.90
2023-05-23T19:06:51.504Z,14.90
2023-05-23T19:09:20.333Z,14.90
2023-05-23T19:11:48.035Z,14.80
2023-05-23T19:14:18.456Z,14.80
2023-05-23T19:16:51.312Z,14.80
2023-05-23T19:19:22.816Z,14.80
2023-05-23T19:21:51.378Z,14.70
2023-05-23T19:24:19.872Z,14.70
2023-05-23T19:26:48.235Z,14.60
2023-05-23T19:29:15.573Z,14.60
2023-05-23T19:31:42.875Z,14.60
2023-05-23T19:34:10.965Z,14.50
2023-05-23T19:36:39.989Z,14.50
2023-05-23T19:39:14.833Z,14.40
2023-05-23T19:41:51.031Z,14.40
2023-05-23T19:44:20.260Z,14.20
2023-05-23T19:46:58.844Z,14.20
2023-05-23T19:49:30.105Z,14.10
2023-05-23T19:51:57.634Z,14.00
2023-05-23T19:54:27.192Z,14.00
2023-05-23T19:57:00.056Z,13.90
2023-05-23T19:59:29.628Z,13.80
2023-05-23T20:01:58.382Z,13.80
2023-05-23T20:04:28.757Z,13.80
2023-05-23T20:06:59.519Z,13.80
2023-05-23T20:09:27.902Z,13.70
2023-05-23T20:11:55.854Z,13.70
2023-05-23T20:14:23.802Z,13.70
2023-05-23T20:16:54.173Z,13.70
2023-05-23T20:19:27.086Z,13.70
2023-05-23T20:21:59.144Z,13.60
2023-05-23T20:24:26.576Z,13.50
2023-05-23T20:26:54.387Z,13.50
2023-05-23T20:29:21.823Z,13.50
2023-05-23T20:31:49.697Z,13.40
2023-05-23T20:34:17.145Z,13.40
2023-05-23T20:36:46.200Z,13.40
2023-05-23T20:39:15.171Z,13.40
2023-05-23T20:41:43.856Z,13.40
2023-05-23T20:44:12.212Z,13.40
2023-05-23T20:46:48.166Z,13.40
2023-05-23T20:49:18.179Z,13.40
2023-05-23T20:51:45.610Z,13.30
2023-05-23T20:54:14.568Z,13.30
2023-05-23T20:56:43.279Z,13.20
2023-05-23T20:59:12.406Z,13.20
2023-05-23T21:01:40.310Z,13.20
2023-05-23T21:04:07.689Z,13.10
2023-05-23T21:06:34.812Z,13.10
2023-05-23T21:09:04.906Z,13.10
2023-05-23T21:11:39.409Z,13.10
2023-05-23T21:14:06.643Z,13.10
2023-05-23T21:16:35.105Z,13.00
2023-05-23T21:19:03.398Z,12.90
2023-05-23T21:21:32.369Z,12.90
2023-05-23T21:24:01.432Z,12.90
2023-05-23T21:26:28.889Z,12.90
2023-05-23T21:28:56.117Z,12.90
2023-05-23T21:31:33.248Z,12.80
2023-05-23T21:34:22.316Z,12.80
2023-05-23T21:36:52.430Z,12.80
2023-05-23T21:39:23.316Z,12.70
2023-05-23T21:41:50.746Z,12.70
2023-05-23T21:44:18.898Z,12.70
2023-05-23T21:46:53.819Z,12.70
2023-05-23T21:49:21.854Z,12.70
2023-05-23T21:51:53.146Z,12.70
2023-05-23T21:54:20.458Z,12.60
2023-05-23T21:56:47.369Z,12.60
2023-05-23T21:59:14.370Z,12.50
2023-05-23T22:01:41.480Z,12.50
2023-05-23T22:04:08.690Z,12.40
2023-05-23T22:06:35.742Z,12.40
2023-05-23T22:09:08.489Z,12.30
2023-05-23T22:11:36.110Z,12.30
2023-05-23T22:14:04.424Z,12.30
2023-05-23T22:16:40.216Z,12.20
2023-05-23T22:19:10.157Z,12.20
2023-05-23T22:21:38.226Z,12.10
2023-05-23T22:24:05.958Z,12.20
2023-05-23T22:26:33.423Z,12.10
2023-05-23T22:29:00.930Z,12.20
2023-05-23T22:31:29.645Z,12.10
2023-05-23T22:33:57.879Z,12.10
2023-05-23T22:36:24.865Z,12.10
2023-05-23T22:38:51.869Z,12.00
2023-05-23T22:41:19.105Z,12.00
2023-05-23T22:43:48.262Z,11.90
2023-05-23T22:46:15.294Z,11.90
2023-05-23T22:48:45.731Z,11.90
2023-05-23T22:51:14.612Z,11.80
2023-05-23T22:53:41.798Z,11.90
2023-05-23T22:56:08.941Z,11.80
2023-05-23T22:58:36.222Z,11.80
2023-05-23T23:01:04.142Z,11.80
2023-05-23T23:03:32.875Z,11.80
2023-05-23T23:05:59.893Z,11.80
2023-05-23T23:08:27.331Z,11.90
2023-05-23T23:10:54.936Z,11.80
2023-05-23T23:13:22.118Z,11.90
2023-05-23T23:15:50.927Z,11.90
2023-05-23T23:18:18.906Z,11.90
2023-05-23T23:20:46.978Z,11.90
2023-05-23T23:23:14.299Z,11.80
2023-05-23T23:25:41.367Z,11.80
2023-05-23T23:28:08.537Z,11.70
2023-05-23T23:30:35.636Z,11.70
2023-05-23T23:33:02.757Z,11.70
2023-05-23T23:35:31.178Z,11.70
2023-05-23T23:37:58.146Z,11.70
2023-05-23T23:40:25.170Z,11.60
2023-05-23T23:42:53.565Z,11.60
2023-05-23T23:45:22.095Z,11.60
2023-05-23T23:47:49.158Z,11.60
2023-05-23T23:50:16.168Z,11.60
2023-05-23T23:52:43.461Z,11.60
2023-05-23T23:55:10.665Z,11.50
2023-05-23T23:57:40.047Z,11.50
